createdAt,value
2022-12-29T00:00:32.777Z,5.60
2022-12-29T00:03:21.272Z,6.10
2022-12-29T00:05:56.903Z,5.20
2022-12-29T00:08:41.057Z,5.20
2022-12-29T00:11:11.664Z,5.80
2022-12-29T00:13:59.541Z,4.80
2022-12-29T00:16:29.803Z,5.10
2022-12-29T00:18:58.292Z,5.10
2022-12-29T00:21:46.234Z,5.50
2022-12-29T00:24:26.836Z,5.00
2022-12-29T00:27:22.900Z,5.20
2022-12-29T00:30:10.408Z,5.80
2022-12-29T00:32:57.534Z,5.00
2022-12-29T00:35:41.039Z,4.70
2022-12-29T00:38:30.425Z,5.00
2022-12-29T00:41:17.494Z,5.10
2022-12-29T00:44:05.218Z,5.00
2022-12-29T00:46:35.696Z,5.30
2022-12-29T00:49:23.874Z,4.60
2022-12-29T00:51:52.816Z,5.00
2022-12-29T00:54:21.504Z,5.20
2022-12-29T00:56:52.144Z,4.10
2022-12-29T00:59:22.026Z,4.60
2022-12-29T01:01:51.561Z,5.00
2022-12-29T01:04:21.630Z,4.80
2022-12-29T01:06:51.730Z,4.70
2022-12-29T01:09:40.743Z,5.00
2022-12-29T01:12:11.543Z,5.80
2022-12-29T01:14:40.441Z,4.40
2022-12-29T01:17:08.796Z,4.10
2022-12-29T01:19:37.219Z,5.10
2022-12-29T01:22:05.555Z,4.70
2022-12-29T01:24:33.861Z,5.40
2022-12-29T01:27:02.899Z,5.10
2022-12-29T01:29:31.738Z,4.80
2022-12-29T01:32:00.086Z,4.90
2022-12-29T01:34:29.013Z,5.30
2022-12-29T01:36:57.498Z,4.50
2022-12-29T01:39:26.762Z,5.30
2022-12-29T01:41:55.235Z,4.70
2022-12-29T01:44:45.422Z,4.60
2022-12-29T01:47:36.278Z,4.70
2022-12-29T01:50:20.370Z,4.70
2022-12-29T01:53:03.939Z,4.70
2022-12-29T01:55:35.913Z,5.40
2022-12-29T01:58:07.601Z,5.10
2022-12-29T02:00:36.726Z,4.40
2022-12-29T02:03:07.473Z,5.30
2022-12-29T02:05:44.952Z,5.10
2022-12-29T02:08:14.922Z,5.00
2022-12-29T02:10:45.637Z,5.00
2022-12-29T02:13:18.455Z,4.40
2022-12-29T02:15:49.760Z,5.30
2022-12-29T02:18:33.763Z,4.90
2022-12-29T02:21:24.214Z,5.80
2022-12-29T02:24:30.528Z,5.10
2022-12-29T02:27:34.415Z,4.20
2022-12-29T02:30:13.350Z,4.50
2022-12-29T02:33:25.460Z,4.80
2022-12-29T02:36:10.829Z,4.70
2022-12-29T02:39:06.974Z,5.50
2022-12-29T02:41:57.983Z,4.50
2022-12-29T02:44:42.546Z,4.60
2022-12-29T02:47:16.201Z,4.80
2022-12-29T02:50:02.824Z,4.70
2022-12-29T02:52:43.888Z,4.80
2022-12-29T02:55:13.035Z,4.70
2022-12-29T02:57:43.182Z,4.80
2022-12-29T03:00:18.346Z,4.10
2022-12-29T03:03:14.904Z,5.00
2022-12-29T03:06:07.796Z,4.90
2022-12-29T03:08:42.369Z,4.50
2022-12-29T03:11:32.370Z,5.50
2022-12-29T03:14:34.839Z,4.00
2022-12-29T03:17:29.454Z,4.40
2022-12-29T03:20:09.451Z,4.10
2022-12-29T03:22:44.956Z,3.90
2022-12-29T03:25:35.058Z,4.10
2022-12-29T03:28:11.001Z,4.60
2022-12-29T03:30:45.109Z,4.80
2022-12-29T03:33:18.949Z,4.40
2022-12-29T03:35:50.605Z,4.30
2022-12-29T03:38:57.999Z,4.00
2022-12-29T03:41:32.393Z,4.00
2022-12-29T03:46:29.694Z,4.10
2022-12-29T03:48:58.370Z,4.50
2022-12-29T03:51:26.754Z,4.40
2022-12-29T03:53:55.968Z,4.70
2022-12-29T03:56:24.346Z,4.30
2022-12-29T03:58:52.839Z,4.20
2022-12-29T04:01:32.153Z,5.00
2022-12-29T04:04:00.623Z,4.20
2022-12-29T04:06:29.091Z,4.60
2022-12-29T04:09:04.183Z,4.20
2022-12-29T04:11:36.038Z,4.90
2022-12-29T04:14:05.961Z,4.10
2022-12-29T04:16:37.022Z,4.80
2022-12-29T04:19:08.647Z,4.00
2022-12-29T04:21:38.239Z,4.60
2022-12-29T04:24:07.791Z,4.40
2022-12-29T04:26:42.784Z,4.50
2022-12-29T04:29:31.307Z,4.30
2022-12-29T04:32:05.947Z,3.70
2022-12-29T04:34:36.586Z,4.50
2022-12-29T04:37:04.910Z,4.10
2022-12-29T04:39:35.671Z,3.90
2022-12-29T04:42:05.158Z,3.80
2022-12-29T04:44:35.319Z,4.60
2022-12-29T04:47:14.468Z,4.10
2022-12-29T04:50:15.310Z,4.00
2022-12-29T04:52:55.635Z,4.20
2022-12-29T04:55:24.164Z,4.30
2022-12-29T04:57:52.556Z,4.40
2022-12-29T05:00:22.038Z,3.50
2022-12-29T05:02:50.622Z,4.70
2022-12-29T05:05:20.026Z,4.30
2022-12-29T05:07:51.645Z,4.20
2022-12-29T05:10:20.022Z,4.30
2022-12-29T05:12:50.353Z,4.00
2022-12-29T05:15:19.713Z,4.50
2022-12-29T05:17:48.143Z,4.20
2022-12-29T05:20:16.939Z,3.90
2022-12-29T05:22:46.169Z,3.80
2022-12-29T05:25:14.599Z,3.90
2022-12-29T05:28:09.995Z,5.40
2022-12-29T05:30:45.676Z,4.90
2022-12-29T05:33:14.216Z,4.30
2022-12-29T05:35:42.871Z,4.10
2022-12-29T05:38:11.642Z,4.00
2022-12-29T05:40:40.268Z,3.50
2022-12-29T05:43:23.299Z,4.30
2022-12-29T05:46:10.252Z,4.20
2022-12-29T05:49:05.668Z,4.30
2022-12-29T05:51:49.450Z,3.80
2022-12-29T05:54:18.406Z,3.60
2022-12-29T05:56:47.380Z,4.10
2022-12-29T05:59:15.906Z,4.10
2022-12-29T06:01:44.576Z,3.80
2022-12-29T06:04:14.227Z,4.00
2022-12-29T06:06:43.750Z,3.90
2022-12-29T06:09:20.121Z,4.00
2022-12-29T06:11:48.730Z,4.50
2022-12-29T06:14:17.142Z,4.10
2022-12-29T06:16:46.645Z,3.80
2022-12-29T06:19:15.563Z,5.80
2022-12-29T06:21:43.881Z,5.40
2022-12-29T06:24:12.607Z,4.90
2022-12-29T06:26:41.356Z,4.70
2022-12-29T06:29:09.844Z,4.60
2022-12-29T06:31:38.551Z,4.70
2022-12-29T06:34:08.703Z,5.60
2022-12-29T06:36:38.825Z,5.20
2022-12-29T06:39:07.517Z,4.50
2022-12-29T06:41:36.507Z,5.00
2022-12-29T06:44:24.433Z,4.70
2022-12-29T06:46:59.371Z,5.00
2022-12-29T06:49:30.096Z,5.00
2022-12-29T06:52:03.360Z,4.90
2022-12-29T06:57:04.033Z,4.50
2022-12-29T06:59:32.800Z,4.30
2022-12-29T07:02:03.535Z,4.40
2022-12-29T07:04:33.441Z,5.20
2022-12-29T07:07:02.010Z,4.90
2022-12-29T07:09:30.417Z,4.50
2022-12-29T07:11:58.827Z,4.00
2022-12-29T07:14:27.585Z,4.50
2022-12-29T07:16:56.184Z,4.20
2022-12-29T07:19:27.323Z,5.00
2022-12-29T07:21:56.590Z,4.60
2022-12-29T07:24:26.922Z,4.40
2022-12-29T07:26:55.478Z,4.70
2022-12-29T07:29:24.241Z,4.40
2022-12-29T07:31:52.811Z,3.70
2022-12-29T07:34:21.570Z,4.50
2022-12-29T07:36:51.542Z,4.40
2022-12-29T07:39:20.056Z,4.20
2022-12-29T07:41:48.576Z,4.00
2022-12-29T07:44:20.851Z,3.90
2022-12-29T07:47:00.068Z,3.80
2022-12-29T07:49:29.207Z,4.70
2022-12-29T07:51:57.811Z,4.20
2022-12-29T07:54:26.317Z,4.70
2022-12-29T07:56:55.396Z,3.70
2022-12-29T07:59:24.032Z,3.90
2022-12-29T08:01:54.739Z,4.30
2022-12-29T08:04:23.191Z,4.20
2022-12-29T08:06:53.011Z,4.40
2022-12-29T08:09:25.451Z,15.20
2022-12-29T08:11:55.519Z,7.50
2022-12-29T08:14:24.026Z,6.60
2022-12-29T08:16:52.482Z,5.50
2022-12-29T08:19:29.732Z,4.50
2022-12-29T08:21:58.182Z,4.50
2022-12-29T08:24:26.743Z,5.20
2022-12-29T08:26:56.333Z,4.40
2022-12-29T08:29:30.685Z,4.60
2022-12-29T08:31:59.218Z,5.30
2022-12-29T08:34:27.588Z,4.80
2022-12-29T08:36:55.974Z,5.10
2022-12-29T08:39:24.461Z,5.20
2022-12-29T08:41:53.029Z,5.30
2022-12-29T08:44:22.547Z,5.90
2022-12-29T08:46:51.252Z,5.50
2022-12-29T08:49:19.693Z,5.50
2022-12-29T08:51:48.264Z,5.50
2022-12-29T08:54:19.526Z,5.10
2022-12-29T08:56:48.086Z,5.30
2022-12-29T08:59:18.465Z,5.90
2022-12-29T09:01:49.153Z,5.90
2022-12-29T09:04:18.504Z,6.00
2022-12-29T09:06:47.371Z,6.10
2022-12-29T09:09:16.269Z,6.00
2022-12-29T09:11:45.958Z,5.30
2022-12-29T09:14:15.676Z,5.90
2022-12-29T09:17:02.680Z,5.40
2022-12-29T09:19:32.564Z,5.60
2022-12-29T09:22:01.073Z,5.10
2022-12-29T09:24:29.758Z,5.20
2022-12-29T09:26:58.582Z,5.40
2022-12-29T09:29:27.294Z,5.30
2022-12-29T09:31:56.816Z,5.30
2022-12-29T09:34:25.251Z,5.40
2022-12-29T09:36:57.521Z,7.40
2022-12-29T09:39:27.079Z,6.00
2022-12-29T09:42:21.270Z,5.70
2022-12-29T09:44:56.758Z,6.30
2022-12-29T09:47:27.145Z,4.80
2022-12-29T09:50:14.870Z,5.50
2022-12-29T09:52:59.626Z,5.80
2022-12-29T09:55:42.486Z,8.70
2022-12-29T09:58:17.169Z,6.40
2022-12-29T10:01:05.406Z,5.30
2022-12-29T10:03:52.229Z,5.70
2022-12-29T10:06:32.900Z,6.20
2022-12-29T10:09:30.359Z,8.70
2022-12-29T10:12:22.662Z,6.50
2022-12-29T10:15:32.803Z,7.20
2022-12-29T10:18:20.289Z,13.30
2022-12-29T10:21:01.524Z,8.00
2022-12-29T10:23:42.189Z,7.40
2022-12-29T10:26:17.165Z,5.90
2022-12-29T10:28:56.817Z,10.00
2022-12-29T10:31:37.069Z,12.10
2022-12-29T10:34:21.171Z,9.90
2022-12-29T10:37:01.623Z,7.80
2022-12-29T10:40:04.423Z,7.40
2022-12-29T10:42:48.808Z,7.20
2022-12-29T10:45:24.799Z,7.00
2022-12-29T10:48:13.679Z,6.70
2022-12-29T10:51:02.113Z,6.40
2022-12-29T10:53:46.643Z,6.40
2022-12-29T10:56:49.004Z,7.60
2022-12-29T10:59:28.282Z,7.60
2022-12-29T11:02:11.945Z,7.90
2022-12-29T11:05:18.174Z,5.60
2022-12-29T11:07:56.836Z,6.80
2022-12-29T11:14:09.580Z,7.30
2022-12-29T11:17:06.654Z,8.00
2022-12-29T11:20:01.826Z,7.30
2022-12-29T11:22:36.931Z,8.10
2022-12-29T11:25:19.852Z,6.60
2022-12-29T11:28:21.547Z,6.90
2022-12-29T11:31:07.528Z,6.00
2022-12-29T11:36:52.293Z,6.30
2022-12-29T11:39:53.328Z,6.40
2022-12-29T11:42:41.458Z,5.60
2022-12-29T11:45:37.579Z,5.60
2022-12-29T11:48:25.245Z,5.70
2022-12-29T11:51:08.266Z,4.70
2022-12-29T11:53:52.321Z,5.10
2022-12-29T11:56:42.143Z,5.40
2022-12-29T11:59:39.737Z,5.30
2022-12-29T12:02:37.214Z,5.40
2022-12-29T12:05:38.956Z,5.60
2022-12-29T12:08:59.478Z,4.90
2022-12-29T12:12:00.160Z,6.70
2022-12-29T12:18:45.178Z,6.10
2022-12-29T12:21:49.410Z,5.80
2022-12-29T12:25:41.130Z,6.20
2022-12-29T12:28:45.905Z,5.70
2022-12-29T12:31:47.190Z,6.10
2022-12-29T12:34:58.770Z,5.40
2022-12-29T12:37:54.732Z,5.00
2022-12-29T12:40:53.979Z,5.30
2022-12-29T12:43:42.260Z,5.30
2022-12-29T12:47:14.220Z,5.70
2022-12-29T12:50:31.348Z,4.90
2022-12-29T12:53:42.145Z,4.80
2022-12-29T12:56:45.833Z,4.80
2022-12-29T12:59:46.763Z,5.70
2022-12-29T13:02:34.590Z,5.10
2022-12-29T13:05:27.327Z,7.60
2022-12-29T13:08:39.600Z,6.10
2022-12-29T13:14:14.242Z,7.10
2022-12-29T13:17:13.391Z,8.40
2022-12-29T13:20:19.369Z,11.10
2022-12-29T13:23:17.224Z,8.60
2022-12-29T13:27:56.937Z,6.10
2022-12-29T13:36:03.409Z,5.60
2022-12-29T13:42:55.488Z,5.10
2022-12-29T13:45:49.030Z,5.10
2022-12-29T13:52:47.284Z,5.30
2022-12-29T13:56:01.234Z,5.30
2022-12-29T13:58:55.242Z,5.80
2022-12-29T14:02:46.983Z,7.00
2022-12-29T14:06:17.838Z,7.60
2022-12-29T14:10:50.940Z,6.70
2022-12-29T14:13:54.840Z,6.50
2022-12-29T14:16:56.133Z,6.10
2022-12-29T14:23:49.466Z,6.10
2022-12-29T14:26:48.469Z,6.60
2022-12-29T14:29:35.239Z,6.30
2022-12-29T14:35:49.352Z,6.70
2022-12-29T14:38:32.522Z,6.60
2022-12-29T14:42:06.243Z,7.20
2022-12-29T14:45:06.988Z,7.70
2022-12-29T14:47:58.700Z,7.90
2022-12-29T14:50:58.117Z,7.50
2022-12-29T14:54:27.959Z,8.00
2022-12-29T14:57:13.890Z,7.30
2022-12-29T15:00:09.253Z,8.50
2022-12-29T15:02:48.005Z,8.90
2022-12-29T15:05:53.239Z,8.20
2022-12-29T15:08:38.516Z,7.90
2022-12-29T15:11:41.505Z,7.50
2022-12-29T15:14:37.416Z,8.00
2022-12-29T15:17:34.083Z,7.60
2022-12-29T15:20:36.013Z,9.40
2022-12-29T15:23:13.111Z,8.50
2022-12-29T15:25:58.113Z,8.80
2022-12-29T15:28:29.414Z,8.60
2022-12-29T15:31:13.929Z,8.90
2022-12-29T15:33:48.635Z,9.50
2022-12-29T15:36:24.910Z,10.20
2022-12-29T15:38:54.720Z,10.20
2022-12-29T15:41:28.216Z,11.70
2022-12-29T15:44:18.430Z,10.90
2022-12-29T15:46:48.621Z,10.60
2022-12-29T15:49:17.617Z,12.10
2022-12-29T15:51:46.801Z,11.10
2022-12-29T15:54:22.148Z,11.30
2022-12-29T15:56:52.418Z,12.20
2022-12-29T15:59:31.449Z,10.40
2022-12-29T16:02:07.162Z,11.10
2022-12-29T16:05:15.563Z,12.00
2022-12-29T16:07:41.321Z,11.50
2022-12-29T16:10:43.961Z,12.50
2022-12-29T16:13:34.197Z,10.10
2022-12-29T16:16:22.165Z,13.20
2022-12-29T16:18:57.325Z,10.60
2022-12-29T16:21:36.273Z,11.80
2022-12-29T16:24:15.134Z,10.90
2022-12-29T16:26:54.128Z,11.90
2022-12-29T16:29:23.202Z,12.40
2022-12-29T16:32:01.916Z,12.10
2022-12-29T16:34:53.379Z,13.60
2022-12-29T16:37:32.138Z,14.70
2022-12-29T16:40:18.763Z,11.30
2022-12-29T16:42:52.337Z,15.00
2022-12-29T16:45:46.671Z,12.30
2022-12-29T16:48:14.977Z,13.40
2022-12-29T16:50:45.169Z,14.00
2022-12-29T16:53:19.574Z,19.10
2022-12-29T16:55:52.841Z,15.80
2022-12-29T16:58:27.079Z,20.50
2022-12-29T17:00:59.747Z,18.20
2022-12-29T17:03:48.737Z,17.70
2022-12-29T17:06:27.226Z,15.80
2022-12-29T17:08:56.225Z,15.80
2022-12-29T17:11:58.369Z,17.70
2022-12-29T17:14:56.139Z,24.70
2022-12-29T17:17:37.814Z,16.80
2022-12-29T17:20:24.879Z,15.80
2022-12-29T17:22:54.348Z,12.50
2022-12-29T17:25:42.426Z,11.10
2022-12-29T17:28:30.334Z,12.00
2022-12-29T17:31:05.859Z,11.70
2022-12-29T17:33:44.296Z,14.90
2022-12-29T17:36:12.919Z,18.60
2022-12-29T17:38:43.546Z,20.40
2022-12-29T17:41:17.355Z,18.20
2022-12-29T17:43:46.092Z,17.60
2022-12-29T17:46:14.497Z,20.90
2022-12-29T17:48:46.721Z,25.00
2022-12-29T17:51:22.511Z,19.50
2022-12-29T17:53:53.690Z,20.90
2022-12-29T17:56:22.318Z,18.50
2022-12-29T17:58:51.436Z,19.30
2022-12-29T18:01:22.790Z,17.00
2022-12-29T18:03:54.857Z,17.30
2022-12-29T18:06:24.504Z,15.60
2022-12-29T18:08:52.956Z,16.80
2022-12-29T18:11:33.058Z,17.10
2022-12-29T18:14:15.082Z,16.10
2022-12-29T18:16:44.459Z,19.20
2022-12-29T18:19:13.163Z,24.80
2022-12-29T18:21:48.300Z,24.60
2022-12-29T18:26:45.281Z,23.00
2022-12-29T18:29:21.372Z,16.20
2022-12-29T18:31:58.217Z,21.80
2022-12-29T18:34:29.861Z,20.10
2022-12-29T18:37:00.041Z,16.60
2022-12-29T18:39:31.838Z,18.00
2022-12-29T18:42:00.433Z,15.10
2022-12-29T18:44:31.553Z,14.50
2022-12-29T18:47:01.783Z,13.90
2022-12-29T18:49:30.362Z,13.80
2022-12-29T18:51:58.959Z,13.10
2022-12-29T18:54:34.113Z,13.60
2022-12-29T18:57:05.949Z,13.60
2022-12-29T18:59:35.348Z,13.00
2022-12-29T19:02:06.301Z,11.40
2022-12-29T19:04:34.747Z,11.40
2022-12-29T19:07:04.293Z,12.70
2022-12-29T19:09:38.744Z,14.10
2022-12-29T19:12:08.545Z,13.70
2022-12-29T19:14:39.463Z,12.20
2022-12-29T19:20:32.224Z,32.60
2022-12-29T19:23:04.333Z,13.00
2022-12-29T19:25:34.251Z,12.60
2022-12-29T19:28:10.560Z,12.10
2022-12-29T19:30:42.512Z,12.10
2022-12-29T19:33:11.076Z,12.20
2022-12-29T19:35:41.732Z,11.50
2022-12-29T19:38:15.024Z,12.40
2022-12-29T19:40:50.607Z,11.80
2022-12-29T19:43:20.289Z,11.60
2022-12-29T19:46:01.805Z,11.90
2022-12-29T19:48:33.601Z,13.50
2022-12-29T19:51:17.505Z,14.30
2022-12-29T19:53:47.728Z,11.80
2022-12-29T19:56:22.224Z,11.70
2022-12-29T19:58:52.017Z,10.70
2022-12-29T20:01:23.185Z,11.50
2022-12-29T20:03:52.778Z,11.60
2022-12-29T20:06:24.890Z,11.70
2022-12-29T20:08:55.927Z,11.50
2022-12-29T20:11:30.174Z,11.70
2022-12-29T20:14:00.145Z,11.30
2022-12-29T20:17:11.351Z,10.50
2022-12-29T20:19:47.218Z,10.20
2022-12-29T20:22:40.074Z,10.60
2022-12-29T20:25:43.608Z,10.60
2022-12-29T20:27:58.500Z,10.30
2022-12-29T20:30:27.884Z,11.60
2022-12-29T20:32:56.255Z,12.00
2022-12-29T20:35:28.417Z,12.20
2022-12-29T20:37:57.863Z,10.90
2022-12-29T20:40:28.802Z,11.50
2022-12-29T20:42:57.512Z,11.10
2022-12-29T20:45:26.672Z,10.90
2022-12-29T20:47:57.534Z,11.80
2022-12-29T20:50:26.887Z,11.40
2022-12-29T20:52:59.630Z,11.50
2022-12-29T20:55:28.964Z,11.10
2022-12-29T20:58:23.282Z,10.70
2022-12-29T21:00:47.417Z,11.40
2022-12-29T21:03:15.958Z,10.60
2022-12-29T21:05:44.470Z,10.40
2022-12-29T21:08:12.915Z,10.00
2022-12-29T21:10:51.529Z,9.60
2022-12-29T21:13:22.993Z,8.60
2022-12-29T21:16:00.629Z,9.50
2022-12-29T21:18:30.223Z,9.60
2022-12-29T21:21:09.901Z,10.60
2022-12-29T21:23:40.268Z,9.60
2022-12-29T21:26:10.422Z,9.60
2022-12-29T21:28:40.218Z,9.70
2022-12-29T21:31:33.519Z,11.00
2022-12-29T21:34:05.449Z,10.30
2022-12-29T21:36:35.969Z,9.00
2022-12-29T21:39:04.747Z,10.80
2022-12-29T21:41:35.373Z,8.50
2022-12-29T21:44:23.400Z,9.40
2022-12-29T21:46:51.838Z,9.80
2022-12-29T21:49:22.244Z,9.50
2022-12-29T21:51:53.859Z,9.30
2022-12-29T21:54:49.746Z,10.20
2022-12-29T21:57:38.813Z,8.90
2022-12-29T22:00:28.668Z,8.30
2022-12-29T22:03:22.748Z,9.20
2022-12-29T22:06:11.692Z,10.10
2022-12-29T22:08:59.386Z,9.50
2022-12-29T22:11:46.618Z,8.50
2022-12-29T22:14:14.944Z,9.50
2022-12-29T22:16:43.504Z,9.70
2022-12-29T22:19:11.875Z,8.20
2022-12-29T22:21:41.403Z,8.30
2022-12-29T22:24:10.011Z,8.20
2022-12-29T22:26:39.014Z,9.20
2022-12-29T22:29:08.076Z,8.80
2022-12-29T22:31:39.143Z,8.60
2022-12-29T22:34:07.605Z,9.10
2022-12-29T22:36:36.110Z,8.70
2022-12-29T22:39:04.494Z,8.00
2022-12-29T22:41:33.834Z,8.20
2022-12-29T22:44:07.281Z,9.40
2022-12-29T22:46:35.789Z,9.80
2022-12-29T22:49:04.157Z,9.30
2022-12-29T22:51:32.580Z,8.40
2022-12-29T22:54:01.638Z,7.90
2022-12-29T22:56:30.219Z,7.30
2022-12-29T22:58:58.876Z,6.40
2022-12-29T23:01:27.409Z,7.40
2022-12-29T23:04:05.977Z,6.50
2022-12-29T23:06:41.120Z,7.70
2022-12-29T23:09:16.731Z,6.90
2022-12-29T23:11:47.471Z,7.20
2022-12-29T23:14:19.291Z,6.70
2022-12-29T23:16:47.903Z,6.20
2022-12-29T23:19:21.104Z,6.90
2022-12-29T23:21:50.849Z,7.40
2022-12-29T23:24:19.731Z,6.70
2022-12-29T23:26:48.841Z,6.90
2022-12-29T23:29:27.625Z,5.90
2022-12-29T23:31:58.549Z,6.80
2022-12-29T23:34:27.037Z,6.40
2022-12-29T23:36:55.294Z,6.20
2022-12-29T23:39:24.987Z,6.70
2022-12-29T23:41:53.499Z,5.70
2022-12-29T23:44:24.262Z,6.20
2022-12-29T23:46:52.875Z,6.60
2022-12-29T23:49:21.459Z,6.80
2022-12-29T23:51:49.754Z,7.30
2022-12-29T23:54:18.115Z,7.40
2022-12-29T23:56:47.671Z,7.40
2022-12-29T23:59:16.245Z,8.20
